Terminal Aerodrome Forecast
Issued by NWS

Home | Current Version | Previous Version | Graphics & Text | Print | Product List | Glossary Off
Versions: 1 2 3 4 5 6 7 8 9 10 11 12 13 14 15 16 17 18 19 20 21 22 23 24 25 26

000
FTUS45 KGGW 021720
TAFGDV
TAF
KGDV 021720Z 0218/0318 32019KT P6SM SCT200
     FM022100 35016KT P6SM SCT250
     FM030200 36008KT P6SM SCT250
     FM030400 VRB04KT P6SM FEW250
      AMD LTD TO CLD VIS AND WIND=

USA.gov is the U.S. government's official web portal to all federal, state and local government web resources and services.